Řízení letového provozu České republiky
Letiste: LKKB Aktualizace: 27.03.2017 12:06:12  UTC
 METAR LKKB 27.03. 12:00 ...
METAR LKKB 271200Z VRB04KT CAVOK 12/M02 Q1027 NOSIG=
 TAF LKKB 27.03. 11:00 ...
TAF LKKB 271100Z 2712/2812 18004KT CAVOK=